createdAt,value
2022-09-29T00:00:54.782Z,7.97
2022-09-29T00:03:23.290Z,7.07
2022-09-29T00:05:53.348Z,7.83
2022-09-29T00:08:23.432Z,7.63
2022-09-29T00:10:50.956Z,8.60
2022-09-29T00:13:18.356Z,12.43
2022-09-29T00:15:45.829Z,8.50
2022-09-29T00:18:14.498Z,9.97
2022-09-29T00:20:41.910Z,17.83
2022-09-29T00:23:08.839Z,8.80
2022-09-29T00:25:35.710Z,9.33
2022-09-29T00:28:02.705Z,8.47
2022-09-29T00:30:29.624Z,8.90
2022-09-29T00:32:57.064Z,9.60
2022-09-29T00:35:23.958Z,10.47
2022-09-29T00:37:50.845Z,8.93
2022-09-29T00:40:17.948Z,9.43
2022-09-29T00:42:45.353Z,8.53
2022-09-29T00:45:21.968Z,9.83
2022-09-29T00:48:06.357Z,9.87
2022-09-29T00:50:49.002Z,9.47
2022-09-29T00:53:21.531Z,10.93
2022-09-29T00:56:06.440Z,9.07
2022-09-29T00:58:41.055Z,9.00
2022-09-29T01:01:09.296Z,8.30
2022-09-29T01:03:41.563Z,9.43
2022-09-29T01:06:25.655Z,10.70
2022-09-29T01:09:05.227Z,8.27
2022-09-29T01:11:32.767Z,10.30
2022-09-29T01:14:05.048Z,10.50
2022-09-29T01:16:34.766Z,12.50
2022-09-29T01:19:10.290Z,8.97
2022-09-29T01:21:59.993Z,9.23
2022-09-29T01:25:08.491Z,9.17
2022-09-29T01:28:05.898Z,8.90
2022-09-29T01:31:01.102Z,9.00
2022-09-29T01:33:43.637Z,9.23
2022-09-29T01:36:31.587Z,8.37
2022-09-29T01:39:30.226Z,8.53
2022-09-29T01:42:21.591Z,8.53
2022-09-29T01:44:58.667Z,9.87
2022-09-29T01:47:46.063Z,9.30
2022-09-29T01:50:33.465Z,8.77
2022-09-29T01:55:38.699Z,10.57
2022-09-29T01:58:10.726Z,9.37
2022-09-29T02:00:59.335Z,8.80
2022-09-29T02:03:36.081Z,9.27
2022-09-29T02:06:15.715Z,9.90
2022-09-29T02:08:57.324Z,9.47
2022-09-29T02:14:22.273Z,9.53
2022-09-29T02:16:57.250Z,9.97
2022-09-29T02:19:27.654Z,9.47
2022-09-29T02:21:55.497Z,9.33
2022-09-29T02:24:23.871Z,8.30
2022-09-29T02:26:51.928Z,9.83
2022-09-29T02:29:20.784Z,9.77
2022-09-29T02:34:53.930Z,10.37
2022-09-29T02:40:52.241Z,8.47
2022-09-29T02:46:19.937Z,9.23
2022-09-29T02:49:08.324Z,9.80
2022-09-29T02:51:42.274Z,9.60
2022-09-29T02:57:58.588Z,10.60
2022-09-29T03:00:27.717Z,9.37
2022-09-29T03:02:55.157Z,9.97
2022-09-29T03:05:23.911Z,10.63
2022-09-29T03:07:51.159Z,10.00
2022-09-29T03:10:20.689Z,10.30
2022-09-29T03:12:48.801Z,9.67
2022-09-29T03:15:15.754Z,10.03
2022-09-29T03:17:42.716Z,20.83
2022-09-29T03:20:10.718Z,10.43
2022-09-29T03:25:13.338Z,10.63
2022-09-29T03:27:43.438Z,13.13
2022-09-29T03:30:13.588Z,10.90
2022-09-29T03:32:40.508Z,11.00
2022-09-29T03:35:08.387Z,10.30
2022-09-29T03:37:35.434Z,11.13
2022-09-29T03:40:04.956Z,11.53
2022-09-29T03:45:08.125Z,11.03
2022-09-29T03:47:35.035Z,15.13
2022-09-29T03:50:01.908Z,13.50
2022-09-29T03:52:29.535Z,11.63
2022-09-29T04:03:13.410Z,11.63
2022-09-29T04:05:41.020Z,14.50
2022-09-29T04:08:08.891Z,13.07
2022-09-29T04:10:37.605Z,18.07
2022-09-29T04:13:05.981Z,18.83
2022-09-29T04:15:33.426Z,12.17
2022-09-29T04:18:00.344Z,13.50
2022-09-29T04:20:27.655Z,12.00
2022-09-29T04:22:54.645Z,11.90
2022-09-29T04:25:21.717Z,13.00
2022-09-29T04:27:48.652Z,12.50
2022-09-29T04:30:16.132Z,15.60
2022-09-29T04:32:43.344Z,16.40
2022-09-29T04:35:10.775Z,11.97
2022-09-29T04:37:37.944Z,14.20
2022-09-29T04:40:06.031Z,12.57
2022-09-29T04:42:33.432Z,12.30
2022-09-29T04:45:00.965Z,12.20
2022-09-29T04:47:39.959Z,11.30
2022-09-29T04:50:07.803Z,12.50
2022-09-29T04:52:34.980Z,13.67
2022-09-29T04:55:03.210Z,12.20
2022-09-29T04:57:30.083Z,12.20
2022-09-29T04:59:57.028Z,12.60
2022-09-29T05:02:24.007Z,11.73
2022-09-29T05:04:50.988Z,12.40
2022-09-29T05:09:57.418Z,13.40
2022-09-29T05:14:55.354Z,12.97
2022-09-29T05:17:22.273Z,12.20
2022-09-29T05:19:56.507Z,11.83
2022-09-29T05:22:24.599Z,14.13
2022-09-29T05:24:52.677Z,14.03
2022-09-29T05:27:26.482Z,12.40
2022-09-29T05:29:53.350Z,17.93
2022-09-29T05:32:22.793Z,14.63
2022-09-29T05:34:50.546Z,12.20
2022-09-29T05:37:22.852Z,13.47
2022-09-29T05:39:52.294Z,16.73
2022-09-29T05:42:20.183Z,16.60
2022-09-29T05:44:57.526Z,13.20
2022-09-29T05:47:27.504Z,12.80
2022-09-29T05:52:24.557Z,12.37
2022-09-29T05:54:51.544Z,12.67
2022-09-29T05:57:19.508Z,16.60
2022-09-29T05:59:48.983Z,15.57
2022-09-29T06:02:18.839Z,12.00
2022-09-29T06:04:54.147Z,17.20
2022-09-29T06:07:21.082Z,12.40
2022-09-29T06:09:48.025Z,14.13
2022-09-29T06:12:18.740Z,13.70
2022-09-29T06:17:41.491Z,13.70
2022-09-29T06:20:09.202Z,17.00
2022-09-29T06:22:36.139Z,17.20
2022-09-29T06:25:03.028Z,16.43
2022-09-29T06:27:29.958Z,12.73
2022-09-29T06:29:56.859Z,21.13
2022-09-29T06:32:24.016Z,14.97
2022-09-29T06:37:48.421Z,21.50
2022-09-29T06:40:17.917Z,14.43
2022-09-29T06:42:47.091Z,17.10
2022-09-29T06:45:14.134Z,12.97
2022-09-29T06:47:41.040Z,13.90
2022-09-29T06:50:16.953Z,16.60
2022-09-29T06:52:55.051Z,19.43
2022-09-29T06:58:07.321Z,22.00
2022-09-29T07:00:35.108Z,20.63
2022-09-29T07:03:02.386Z,14.70
2022-09-29T07:05:29.284Z,16.30
2022-09-29T07:08:00.649Z,20.70
2022-09-29T07:10:27.914Z,16.63
2022-09-29T07:12:55.489Z,15.50
2022-09-29T07:15:22.465Z,22.03
2022-09-29T07:17:50.588Z,19.17
2022-09-29T07:23:00.108Z,17.43
2022-09-29T07:28:02.220Z,18.40
2022-09-29T07:30:39.589Z,18.37
2022-09-29T07:35:45.308Z,30.03
2022-09-29T07:38:12.190Z,18.30
2022-09-29T07:40:39.148Z,21.23
2022-09-29T07:43:07.598Z,16.57
2022-09-29T07:45:35.634Z,16.10
2022-09-29T07:48:02.630Z,30.17
2022-09-29T07:50:29.577Z,18.73
2022-09-29T07:52:56.638Z,23.47
2022-09-29T07:55:24.020Z,30.33
2022-09-29T07:57:52.184Z,21.33
2022-09-29T08:00:22.748Z,17.20
2022-09-29T08:05:28.890Z,17.30
2022-09-29T08:07:55.788Z,20.27
2022-09-29T08:10:22.690Z,19.03
2022-09-29T08:12:54.161Z,28.10
2022-09-29T08:17:54.697Z,17.80
2022-09-29T08:20:22.730Z,21.40
2022-09-29T08:22:51.573Z,22.93
2022-09-29T08:25:18.778Z,19.80
2022-09-29T08:27:54.553Z,24.20
2022-09-29T08:30:22.823Z,18.37
2022-09-29T08:35:28.375Z,21.83
2022-09-29T08:37:57.603Z,18.70
2022-09-29T08:40:28.673Z,32.93
2022-09-29T08:43:35.123Z,18.37
2022-09-29T08:46:10.210Z,39.33
2022-09-29T08:54:43.952Z,15.20
2022-09-29T08:57:20.069Z,21.60
2022-09-29T08:59:59.373Z,20.43
2022-09-29T09:02:47.168Z,23.63
2022-09-29T09:06:01.237Z,29.77
2022-09-29T09:08:41.672Z,15.70
2022-09-29T09:11:51.507Z,20.40
2022-09-29T09:14:26.149Z,17.23
2022-09-29T09:17:16.263Z,56.80
2022-09-29T09:22:43.715Z,22.77
2022-09-29T09:25:28.556Z,13.27
2022-09-29T09:28:20.415Z,15.93
2022-09-29T09:34:06.346Z,12.57
2022-09-29T09:37:05.178Z,13.83
2022-09-29T09:39:48.656Z,12.20
2022-09-29T09:42:39.122Z,12.37
2022-09-29T09:48:19.392Z,13.33
2022-09-29T09:50:49.977Z,11.77
2022-09-29T09:53:27.404Z,13.00
2022-09-29T09:56:24.833Z,13.27
2022-09-29T09:59:24.698Z,9.80
2022-09-29T10:01:51.596Z,10.17
2022-09-29T10:06:50.750Z,9.73
2022-09-29T10:09:17.992Z,10.80
2022-09-29T10:11:50.367Z,11.23
2022-09-29T10:14:28.316Z,10.07
2022-09-29T10:17:10.468Z,13.40
2022-09-29T10:19:57.602Z,8.80
2022-09-29T10:22:26.994Z,8.93
2022-09-29T10:28:14.934Z,9.27
2022-09-29T10:30:43.910Z,10.40
2022-09-29T10:33:18.092Z,7.70
2022-09-29T10:35:48.919Z,13.93
2022-09-29T10:38:27.298Z,14.73
2022-09-29T10:41:05.409Z,13.70
2022-09-29T10:43:47.628Z,10.80
2022-09-29T10:46:56.090Z,6.77
2022-09-29T10:49:28.178Z,7.77
2022-09-29T10:52:25.756Z,5.90
2022-09-29T10:55:05.153Z,5.23
2022-09-29T10:57:35.572Z,6.63
2022-09-29T11:00:02.957Z,5.83
2022-09-29T11:02:39.592Z,5.30
2022-09-29T11:05:20.216Z,6.37
2022-09-29T11:07:51.620Z,6.17
2022-09-29T11:10:31.395Z,6.73
2022-09-29T11:12:59.856Z,6.83
2022-09-29T11:15:48.721Z,6.43
2022-09-29T11:18:23.533Z,5.50
2022-09-29T11:21:02.939Z,6.73
2022-09-29T11:23:46.115Z,4.93
2022-09-29T11:26:43.817Z,7.53
2022-09-29T11:29:57.735Z,5.83
2022-09-29T11:32:39.840Z,5.50
2022-09-29T11:35:21.188Z,5.07
2022-09-29T11:38:25.977Z,5.77
2022-09-29T11:41:31.555Z,5.53
2022-09-29T11:47:26.343Z,5.43
2022-09-29T11:50:23.671Z,6.80
2022-09-29T11:53:21.523Z,16.63
2022-09-29T11:56:24.823Z,6.67
2022-09-29T11:58:54.739Z,7.57
2022-09-29T12:01:52.617Z,5.10
2022-09-29T12:05:08.751Z,5.20
2022-09-29T12:08:00.131Z,4.67
2022-09-29T12:11:40.447Z,4.90
2022-09-29T12:14:37.743Z,4.60
2022-09-29T12:17:18.899Z,5.70
2022-09-29T12:19:56.495Z,5.67
2022-09-29T12:22:23.485Z,9.13
2022-09-29T12:24:59.749Z,6.20
2022-09-29T12:27:33.907Z,9.10
2022-09-29T12:30:24.504Z,4.20
2022-09-29T12:36:35.031Z,4.63
2022-09-29T12:39:17.924Z,4.60
2022-09-29T12:42:22.331Z,4.20
2022-09-29T12:44:57.644Z,3.97
2022-09-29T12:48:00.685Z,4.43
2022-09-29T12:50:39.159Z,15.43
2022-09-29T12:53:37.937Z,3.53
2022-09-29T12:56:26.759Z,4.37
2022-09-29T13:02:47.235Z,4.20
2022-09-29T13:05:55.415Z,4.03
2022-09-29T13:09:02.264Z,3.73
2022-09-29T13:12:17.775Z,4.03
2022-09-29T13:15:18.867Z,3.80
2022-09-29T13:18:21.359Z,4.00
2022-09-29T13:21:09.911Z,4.83
2022-09-29T13:24:20.371Z,5.30
2022-09-29T13:27:15.011Z,5.10
2022-09-29T13:29:54.981Z,6.33
2022-09-29T13:32:23.869Z,4.20
2022-09-29T13:34:58.026Z,5.00
2022-09-29T13:37:28.165Z,3.10
2022-09-29T13:40:03.583Z,10.10
2022-09-29T13:42:47.296Z,4.73
2022-09-29T13:45:41.228Z,7.13
2022-09-29T13:48:17.275Z,4.73
2022-09-29T13:50:53.232Z,4.23
2022-09-29T13:53:26.845Z,2.10
2022-09-29T13:56:01.822Z,2.70
2022-09-29T13:58:58.912Z,3.27
2022-09-29T14:01:35.956Z,2.40
2022-09-29T14:04:38.147Z,2.23
2022-09-29T14:07:10.981Z,1.90
2022-09-29T14:09:49.547Z,1.90
2022-09-29T14:12:23.994Z,2.07
2022-09-29T14:14:58.709Z,2.37
2022-09-29T14:17:34.391Z,1.87
2022-09-29T14:20:24.569Z,1.87
2022-09-29T14:23:00.838Z,1.83
2022-09-29T14:25:43.240Z,1.70
2022-09-29T14:28:19.870Z,1.87
2022-09-29T14:30:52.310Z,4.90
2022-09-29T14:33:37.300Z,1.73
2022-09-29T14:36:14.481Z,2.53
2022-09-29T14:39:14.424Z,1.50
2022-09-29T14:41:47.205Z,2.77
2022-09-29T14:44:50.953Z,2.00
2022-09-29T14:48:01.271Z,2.77
2022-09-29T14:51:12.705Z,1.50
2022-09-29T14:54:00.596Z,3.30
2022-09-29T14:57:15.924Z,11.70
2022-09-29T15:00:13.427Z,2.67
2022-09-29T15:02:59.935Z,2.50
2022-09-29T15:05:37.951Z,2.73
2022-09-29T15:08:28.609Z,2.17
2022-09-29T15:10:56.972Z,2.73
2022-09-29T15:13:29.866Z,2.50
2022-09-29T15:16:05.083Z,3.20
2022-09-29T15:18:42.790Z,2.70
2022-09-29T15:21:18.641Z,3.20
2022-09-29T15:26:17.655Z,5.47
2022-09-29T15:28:45.662Z,2.33
2022-09-29T15:31:20.101Z,3.47
2022-09-29T15:33:47.924Z,2.43
2022-09-29T15:36:37.637Z,2.10
2022-09-29T15:39:33.574Z,15.10
2022-09-29T15:42:04.229Z,5.63
2022-09-29T15:44:33.953Z,2.33
2022-09-29T15:47:01.353Z,3.60
2022-09-29T15:49:29.976Z,2.83
2022-09-29T15:52:06.471Z,5.60
2022-09-29T15:54:40.937Z,2.87
2022-09-29T15:57:58.565Z,5.13
2022-09-29T16:00:28.107Z,3.50
2022-09-29T16:03:12.940Z,12.40
2022-09-29T16:05:52.896Z,4.67
2022-09-29T16:08:26.261Z,2.83
2022-09-29T16:11:03.056Z,4.50
2022-09-29T16:13:34.918Z,6.53
2022-09-29T16:16:06.239Z,4.80
2022-09-29T16:18:47.043Z,3.83
2022-09-29T16:21:19.429Z,3.03
2022-09-29T16:24:07.083Z,9.07
2022-09-29T16:26:41.483Z,8.00
2022-09-29T16:29:33.323Z,3.97
2022-09-29T16:32:32.745Z,4.50
2022-09-29T16:35:44.538Z,4.10
2022-09-29T16:40:49.602Z,14.20
2022-09-29T16:43:32.484Z,12.67
2022-09-29T16:46:15.609Z,7.03
2022-09-29T16:48:45.278Z,11.13
2022-09-29T16:51:40.120Z,6.57
2022-09-29T16:54:39.640Z,3.80
2022-09-29T16:57:30.267Z,4.27
2022-09-29T17:00:11.979Z,10.87
2022-09-29T17:02:38.918Z,4.07
2022-09-29T17:05:06.686Z,4.67
2022-09-29T17:07:41.820Z,4.07
2022-09-29T17:10:19.123Z,4.53
2022-09-29T17:12:46.392Z,4.53
2022-09-29T17:15:15.230Z,5.50
2022-09-29T17:17:43.092Z,4.33
2022-09-29T17:20:18.127Z,5.07
2022-09-29T17:25:21.080Z,5.83
2022-09-29T17:28:10.066Z,5.97
2022-09-29T17:30:39.827Z,5.77
2022-09-29T17:33:13.308Z,5.83
2022-09-29T17:35:55.112Z,9.20
2022-09-29T17:38:23.879Z,6.60
2022-09-29T17:41:03.944Z,6.70
2022-09-29T17:43:31.696Z,14.03
2022-09-29T17:46:00.356Z,7.23
2022-09-29T17:48:30.828Z,11.70
2022-09-29T17:50:59.500Z,9.00
2022-09-29T17:53:26.731Z,10.60
2022-09-29T17:55:56.687Z,11.73
2022-09-29T17:58:24.062Z,9.67
2022-09-29T18:00:54.011Z,7.93
2022-09-29T18:03:22.250Z,8.67
2022-09-29T18:05:56.220Z,9.47
2022-09-29T18:08:26.660Z,13.50
2022-09-29T18:11:02.050Z,8.67
2022-09-29T18:13:31.975Z,10.07
2022-09-29T18:16:00.678Z,18.73
2022-09-29T18:18:27.696Z,9.90
2022-09-29T18:20:54.772Z,10.47
2022-09-29T18:23:25.636Z,11.40
2022-09-29T18:25:53.370Z,9.57
2022-09-29T18:28:20.495Z,16.10
2022-09-29T18:30:52.106Z,12.63
2022-09-29T18:33:20.726Z,10.90
2022-09-29T18:35:54.315Z,11.60
2022-09-29T18:38:21.622Z,11.20
2022-09-29T18:40:51.902Z,13.10
2022-09-29T18:43:18.776Z,11.40
2022-09-29T18:45:45.705Z,9.10
2022-09-29T18:48:15.470Z,10.93
2022-09-29T18:50:46.025Z,10.90
2022-09-29T18:53:16.267Z,15.87
2022-09-29T18:55:43.624Z,10.27
2022-09-29T18:58:15.225Z,10.37
2022-09-29T19:00:50.275Z,10.57
2022-09-29T19:03:19.203Z,15.00
2022-09-29T19:05:47.978Z,11.10
2022-09-29T19:08:17.029Z,13.07
2022-09-29T19:10:54.844Z,15.47
2022-09-29T19:13:22.888Z,10.93
2022-09-29T19:15:50.380Z,10.60
2022-09-29T19:18:23.623Z,11.33
2022-09-29T19:20:54.455Z,12.27
2022-09-29T19:23:21.996Z,12.30
2022-09-29T19:25:50.359Z,11.60
2022-09-29T19:28:19.294Z,12.83
2022-09-29T19:30:47.163Z,12.37
2022-09-29T19:35:54.325Z,10.10
2022-09-29T19:38:22.876Z,10.20
2022-09-29T19:40:51.542Z,11.90
2022-09-29T19:43:21.423Z,15.50
2022-09-29T19:45:49.295Z,10.77
2022-09-29T19:51:21.495Z,11.00
2022-09-29T19:53:49.899Z,12.50
2022-09-29T19:56:17.412Z,13.43
2022-09-29T19:58:44.434Z,11.43
2022-09-29T20:01:12.065Z,14.23
2022-09-29T20:03:39.478Z,11.57
2022-09-29T20:06:06.889Z,12.47
2022-09-29T20:08:35.956Z,12.43
2022-09-29T20:11:11.451Z,9.80
2022-09-29T20:13:39.029Z,13.07
2022-09-29T20:16:07.468Z,10.10
2022-09-29T20:18:37.461Z,11.20
2022-09-29T20:23:46.247Z,9.50
2022-09-29T20:26:13.133Z,9.33
2022-09-29T20:28:40.362Z,11.53
2022-09-29T20:31:08.178Z,10.40
2022-09-29T20:33:36.616Z,9.40
2022-09-29T20:38:47.901Z,10.80
2022-09-29T20:41:16.036Z,10.77
2022-09-29T20:43:46.979Z,11.53
2022-09-29T20:46:15.263Z,10.63
2022-09-29T20:48:43.183Z,13.50
2022-09-29T20:51:16.072Z,11.43
2022-09-29T20:53:55.262Z,11.60
2022-09-29T20:56:31.361Z,15.07
2022-09-29T20:59:01.169Z,11.20
2022-09-29T21:01:30.583Z,11.80
2022-09-29T21:04:03.655Z,11.40
2022-09-29T21:06:34.456Z,12.60
2022-09-29T21:09:03.087Z,18.10
2022-09-29T21:11:37.850Z,13.33
2022-09-29T21:14:11.427Z,12.13
2022-09-29T21:16:44.855Z,12.80
2022-09-29T21:19:13.339Z,13.73
2022-09-29T21:21:41.517Z,12.17
2022-09-29T21:24:09.414Z,17.43
2022-09-29T21:27:06.192Z,13.20
2022-09-29T21:29:35.419Z,11.73
2022-09-29T21:32:09.292Z,14.47
2022-09-29T21:34:42.331Z,19.83
2022-09-29T21:37:10.105Z,14.23
2022-09-29T21:39:37.089Z,11.50
2022-09-29T21:44:57.202Z,9.97
2022-09-29T21:47:44.804Z,11.37
2022-09-29T21:50:11.763Z,16.07
2022-09-29T21:52:38.629Z,11.27
2022-09-29T21:57:39.044Z,11.50
2022-09-29T22:00:08.584Z,11.20
2022-09-29T22:02:35.616Z,11.07
2022-09-29T22:05:05.876Z,10.47
2022-09-29T22:07:36.726Z,10.27
2022-09-29T22:10:10.035Z,11.13
2022-09-29T22:12:36.923Z,12.70
2022-09-29T22:15:06.411Z,10.83
2022-09-29T22:17:37.187Z,10.43
2022-09-29T22:20:05.405Z,10.07
2022-09-29T22:25:19.177Z,12.77
2022-09-29T22:27:46.043Z,14.50
2022-09-29T22:30:12.978Z,15.50
2022-09-29T22:35:28.451Z,12.83
2022-09-29T22:37:55.319Z,12.67
2022-09-29T22:40:22.190Z,12.73
2022-09-29T22:42:49.129Z,11.33
2022-09-29T22:45:16.200Z,11.50
2022-09-29T22:47:43.170Z,12.20
2022-09-29T22:50:10.178Z,11.23
2022-09-29T22:52:38.003Z,10.53
2022-09-29T22:55:05.951Z,10.30
2022-09-29T22:57:35.166Z,9.47
2022-09-29T23:00:02.376Z,9.93
2022-09-29T23:02:29.296Z,10.27
2022-09-29T23:04:56.154Z,17.30
2022-09-29T23:07:23.050Z,11.80
2022-09-29T23:09:50.021Z,13.53
2022-09-29T23:12:16.949Z,10.73
2022-09-29T23:14:43.900Z,9.63
2022-09-29T23:17:10.827Z,10.37
2022-09-29T23:19:37.828Z,9.87
2022-09-29T23:22:04.782Z,15.00
2022-09-29T23:24:31.687Z,11.57
2022-09-29T23:27:00.507Z,13.27
2022-09-29T23:29:27.360Z,10.87
2022-09-29T23:31:54.275Z,10.57
2022-09-29T23:34:23.724Z,22.13
2022-09-29T23:36:53.372Z,12.77
2022-09-29T23:39:20.435Z,14.77
2022-09-29T23:41:50.356Z,13.63
2022-09-29T23:44:23.945Z,33.70
2022-09-29T23:46:54.147Z,10.50
2022-09-29T23:49:27.327Z,14.73
2022-09-29T23:51:58.080Z,11.17
2022-09-29T23:54:27.287Z,9.97
2022-09-29T23:56:56.341Z,11.20
2022-09-29T23:59:24.054Z,14.00
